Ventress, LA

2:36 PM CDT on September 17, 2019 (GMT -0500)
Jarreau | | Change Station

Elev 69 ft 30.61 °N, 91.38 °W | Updated 10 seconds ago

Partly Cloudy
Partly Cloudy
89.8 °F
Feels Like 99 °F
N
2
Wind Variable Wind from SSE
Gusts 3.0 mph

Today
High -- | Low -- °F
--% Chance of Precip.
Yesterday
High -- | Low -- °F
Precip. -- in
Pressure 29.98 in
Visibility 10.0 miles
Clouds Scattered Clouds 5000 ft
Scattered Clouds 6000 ft
Heat Index 99 °F
Dew Point 74 °F
Humidity 60%
Rainfall 0.00 in
Snow Depth Not available.
6:51 AM 7:08 PM
Waning Gibbous, 88% visible
METAR KHZR 171919Z AUTO 14008G14KT 10SM SCT050 SCT060 33/22 A2998 RMK AO2 LTG DSNT SE
Pressure 29.98 in
Visibility 10.0 miles
Clouds Scattered Clouds 5000 ft
Scattered Clouds 6000 ft
Heat Index 99 °F
Dew Point 74 °F
Humidity 60%
Rainfall 0.00 in
Snow Depth Not available.
6:51 AM 7:08 PM
Waning Gibbous, 88% visible
METAR KHZR 171919Z AUTO 14008G14KT 10SM SCT050 SCT060 33/22 A2998 RMK AO2 LTG DSNT SE

Get Severe Weather Alerts

Thanks for signing up!

Be on the lookout for a verification email in your inbox.

You'll start receiving the daily forecast at 6 AM.

×

10-Day Weather Forecast

Almanac

Astronomy

Sep. 17, 2019 Rise Set
Actual Time
Civil Twilight
Nautical Twilight
Astronomical Twilight
Moon
Length of Visible Light
Length of Day
Tomorrow will be .
, % of the Moon is Illuminated

Today's Extremes

State Highs State Lows

Community

WunderPhotos

Category 6

Welcome to Category 6. This is the collective home for Weather Underground's featured writeups by Dr. Jeff Masters (right), Bob Henson (left), Chris Burt, and other regular contributors.

Nearby

Air Quality

  Air Quality AQ Index Pollutant
Not available.

Snow Depth

Station Depth Elevation

Earthquake Activity

City Distance Mag. Time & Date
Minimum magnitude displayed is 2.5.

Coastal Water Temperatures

Place Temperature

Stations

Nearby Weather Stations

Station Location Temp. Windchill Dew Point Humidity Wind Precip. Elev Updated Type
                   

Watches & Warnings

There are currently no watches in effect.